Time;durP1;ratioP1;P1;durP2;ratioP2;P2;SDS_P1;SDS_P2;PMS_P1;PMS_P2;Temp;Humidity;BMP_temperature;BMP_pressure;BME280_temperature;BME280_humidity;BME280_pressure;Samples;Min_cycle;Max_cycle;Signal;HPM_P1;HPM_P2
2021/03/07 00:00:29;;;;;;;5.25;2.30;;;9.40;79.30;;;;;;5050820;28;20068;-71
2021/03/07 00:02:56;;;;;;;5.28;2.60;;;9.40;79.00;;;;;;5046395;28;20049;-71
2021/03/07 00:05:24;;;;;;;3.08;1.10;;;9.30;79.00;;;;;;5045793;28;20056;-71
2021/03/07 00:07:52;;;;;;;4.28;1.33;;;9.30;79.10;;;;;;5050332;28;20040;-71
2021/03/07 00:10:21;;;;;;;3.20;1.80;;;9.40;78.80;;;;;;5057499;28;20406;-71
2021/03/07 00:12:49;;;;;;;2.22;1.25;;;9.40;78.90;;;;;;5051024;28;20033;-71
2021/03/07 00:15:18;;;;;;;3.67;1.55;;;9.40;78.90;;;;;;5051919;28;20041;-72
2021/03/07 00:17:48;;;;;;;4.30;1.35;;;9.30;78.50;;;;;;5048922;28;20087;-71
2021/03/07 00:20:18;;;;;;;2.25;1.17;;;9.10;78.90;;;;;;5057662;28;20385;-71
2021/03/07 00:22:46;;;;;;;4.10;1.40;;;9.20;78.90;;;;;;5052990;28;20044;-71
2021/03/07 00:25:15;;;;;;;3.15;1.27;;;9.30;78.70;;;;;;5050471;28;20486;-71
2021/03/07 00:27:42;;;;;;;2.85;1.30;;;9.20;78.00;;;;;;5052710;28;20042;-71
2021/03/07 00:30:13;;;;;;;3.63;1.35;;;9.10;77.80;;;;;;5049888;28;20115;-71
2021/03/07 00:32:42;;;;;;;3.33;1.30;;;9.00;78.80;;;;;;5055551;28;20047;-72
2021/03/07 00:35:12;;;;;;;2.65;1.20;;;9.00;78.80;;;;;;5054174;28;20037;-71
2021/03/07 00:37:40;;;;;;;2.30;1.08;;;9.10;78.90;;;;;;5049365;28;20588;-72
2021/03/07 00:40:09;;;;;;;1.65;0.85;;;9.00;77.70;;;;;;5053998;28;20489;-71
2021/03/07 00:42:39;;;;;;;3.40;1.00;;;9.00;78.10;;;;;;5047208;28;20045;-72
2021/03/07 00:45:08;;;;;;;3.75;1.40;;;8.80;78.50;;;;;;5054632;28;20037;-71
2021/03/07 00:47:35;;;;;;;2.28;1.15;;;9.00;78.30;;;;;;5052067;28;20510;-71
2021/03/07 00:50:07;;;;;;;3.40;1.13;;;8.90;78.10;;;;;;5048996;28;20118;-71
2021/03/07 00:52:36;;;;;;;4.65;1.35;;;8.90;78.60;;;;;;5042831;28;21113;-71
2021/03/07 00:55:05;;;;;;;3.85;1.23;;;8.80;78.50;;;;;;5072517;28;20043;-71
2021/03/07 00:57:32;;;;;;;2.47;1.13;;;8.80;78.90;;;;;;5033573;28;20050;-71
2021/03/07 01:00:00;;;;;;;2.17;0.88;;;8.70;78.20;;;;;;5055503;28;20430;-72
2021/03/07 01:02:27;;;;;;;3.65;1.40;;;8.80;79.20;;;;;;5040608;28;20181;-71
2021/03/07 01:04:55;;;;;;;3.50;1.17;;;8.90;78.80;;;;;;5046914;28;20054;-71
2021/03/07 01:07:23;;;;;;;6.68;1.98;;;8.80;79.00;;;;;;5078690;28;20048;-71
2021/03/07 01:09:51;;;;;;;5.78;1.30;;;8.90;79.00;;;;;;5034255;28;20405;-71
2021/03/07 01:12:18;;;;;;;3.55;1.50;;;8.80;79.40;;;;;;5073409;28;20032;-72
2021/03/07 01:14:45;;;;;;;5.70;3.47;;;8.80;79.50;;;;;;5059127;28;20097;-71
2021/03/07 01:17:12;;;;;;;3.17;1.85;;;8.80;79.50;;;;;;5057591;28;20040;-71
2021/03/07 01:19:40;;;;;;;3.17;1.75;;;8.70;79.00;;;;;;5076039;28;20040;-71
2021/03/07 01:22:08;;;;;;;5.13;1.30;;;8.70;79.00;;;;;;5072336;28;20094;-71
2021/03/07 01:24:35;;;;;;;3.50;1.48;;;8.70;79.10;;;;;;5055580;28;20136;-71
2021/03/07 01:27:04;;;;;;;2.78;1.58;;;8.90;78.00;;;;;;5061179;28;20040;-72
2021/03/07 01:29:32;;;;;;;5.53;1.75;;;8.80;78.80;;;;;;5052617;28;20493;-71
2021/03/07 01:32:00;;;;;;;2.15;1.25;;;8.80;78.40;;;;;;5068565;28;20049;-71
2021/03/07 01:34:27;;;;;;;5.40;1.20;;;8.70;78.80;;;;;;5056895;28;20056;-71
2021/03/07 01:36:54;;;;;;;10.90;4.30;;;8.70;78.80;;;;;;5055900;28;20041;-71
2021/03/07 01:39:22;;;;;;;3.65;1.40;;;8.60;79.10;;;;;;5055856;28;20064;-71
2021/03/07 01:41:49;;;;;;;3.63;1.20;;;8.70;78.90;;;;;;5076596;28;20545;-70
2021/03/07 01:44:17;;;;;;;3.75;1.23;;;8.60;78.60;;;;;;5072285;28;20043;-71
2021/03/07 01:46:45;;;;;;;6.60;2.60;;;8.60;79.30;;;;;;5060022;28;20071;-72
2021/03/07 01:49:13;;;;;;;4.88;2.00;;;8.60;79.30;;;;;;5076171;28;20135;-71
2021/03/07 01:51:41;;;;;;;6.22;2.30;;;8.60;79.60;;;;;;5052558;28;20394;-71
2021/03/07 01:54:08;;;;;;;4.38;2.22;;;8.60;80.10;;;;;;5072351;28;20052;-71
2021/03/07 01:56:38;;;;;;;3.92;1.38;;;8.60;79.90;;;;;;5068703;28;20043;-71
2021/03/07 01:59:06;;;;;;;9.85;4.88;;;8.60;79.60;;;;;;5074303;28;20412;-72
2021/03/07 02:01:34;;;;;;;5.50;3.25;;;8.60;79.80;;;;;;5077863;28;20040;-71
2021/03/07 02:04:02;;;;;;;3.10;1.30;;;8.60;79.60;;;;;;5053280;28;20401;-71
2021/03/07 02:06:29;;;;;;;3.85;1.80;;;8.50;79.40;;;;;;5060247;28;20110;-71
2021/03/07 02:08:57;;;;;;;4.90;1.60;;;8.60;79.30;;;;;;5073996;28;20032;-72
2021/03/07 02:11:25;;;;;;;2.15;1.20;;;8.70;79.00;;;;;;5077547;28;20488;-71
2021/03/07 02:13:54;;;;;;;5.32;1.48;;;8.70;78.70;;;;;;5051940;28;20474;-71
2021/03/07 02:16:24;;;;;;;2.50;1.20;;;8.60;78.70;;;;;;5049469;28;20420;-72
2021/03/07 02:18:54;;;;;;;3.30;1.10;;;8.50;78.80;;;;;;5078016;28;20028;-71
2021/03/07 02:21:24;;;;;;;1.63;0.90;;;8.40;78.50;;;;;;5052255;28;20139;-71
2021/03/07 02:24:02;;;;;;;2.80;1.08;;;8.30;79.00;;;;;;5071842;28;20039;-72
2021/03/07 02:26:30;;;;;;;5.63;1.98;;;8.30;79.20;;;;;;5033611;28;20045;-71
2021/03/07 02:28:58;;;;;;;3.22;1.23;;;8.40;79.40;;;;;;5039659;28;20044;-72
2021/03/07 02:31:27;;;;;;;2.40;0.88;;;8.40;79.20;;;;;;5079384;28;20063;-71
2021/03/07 02:34:00;;;;;;;2.33;1.10;;;8.40;79.20;;;;;;5052896;28;20055;-71
2021/03/07 02:36:31;;;;;;;2.80;1.02;;;8.40;79.50;;;;;;5054692;28;20063;-71
2021/03/07 02:39:01;;;;;;;2.55;1.13;;;8.40;79.50;;;;;;5056635;28;20755;-72
2021/03/07 02:41:30;;;;;;;4.80;1.38;;;8.40;79.30;;;;;;5058133;28;20060;-72
2021/03/07 02:43:59;;;;;;;2.92;1.20;;;8.30;79.80;;;;;;5059994;28;20040;-70
2021/03/07 02:46:29;;;;;;;1.58;0.88;;;8.30;79.80;;;;;;5073318;28;20151;-70
2021/03/07 02:48:59;;;;;;;2.13;1.10;;;8.30;80.20;;;;;;5053954;28;20040;-70
2021/03/07 02:51:29;;;;;;;4.75;2.30;;;8.30;80.20;;;;;;5055975;28;20187;-69
2021/03/07 02:54:02;;;;;;;3.13;1.60;;;8.20;80.60;;;;;;5059183;28;20040;-70
2021/03/07 02:56:32;;;;;;;3.67;1.10;;;8.20;80.60;;;;;;5070482;28;20040;-70
2021/03/07 02:59:02;;;;;;;3.53;1.30;;;8.20;81.00;;;;;;5055374;28;20410;-70
2021/03/07 03:01:30;;;;;;;2.47;1.25;;;8.10;81.00;;;;;;5055727;28;20044;-70
2021/03/07 03:03:59;;;;;;;2.42;1.08;;;8.10;82.20;;;;;;5072245;28;20035;-70
2021/03/07 03:06:28;;;;;;;1.80;0.98;;;8.00;81.60;;;;;;5070891;28;20456;-70
2021/03/07 03:08:58;;;;;;;3.72;1.27;;;8.00;81.80;;;;;;5070447;28;20095;-70
2021/03/07 03:11:33;;;;;;;3.13;1.20;;;7.80;82.10;;;;;;5050182;28;20058;-70
2021/03/07 03:14:01;;;;;;;5.15;1.52;;;7.80;82.50;;;;;;5079508;28;20118;-70
2021/03/07 03:16:31;;;;;;;3.42;1.30;;;7.80;83.20;;;;;;5072773;28;20043;-70
2021/03/07 03:19:00;;;;;;;1.88;1.13;;;7.70;83.80;;;;;;5055431;28;20056;-70
2021/03/07 03:21:27;;;;;;;3.30;1.23;;;7.60;84.90;;;;;;5049547;28;20048;-70
2021/03/07 03:23:54;;;;;;;2.58;1.20;;;7.50;85.70;;;;;;5073580;28;20048;-70
2021/03/07 03:26:24;;;;;;;2.20;1.17;;;7.50;86.40;;;;;;5073629;28;20036;-70
2021/03/07 03:28:54;;;;;;;2.65;1.02;;;7.40;86.70;;;;;;5051473;28;20436;-70
2021/03/07 03:31:22;;;;;;;3.70;1.33;;;7.40;87.10;;;;;;5070035;28;20048;-70
2021/03/07 03:33:49;;;;;;;2.97;1.25;;;7.40;87.50;;;;;;5054144;28;20097;-70
2021/03/07 03:36:17;;;;;;;1.60;1.23;;;7.40;87.00;;;;;;5053638;28;20051;-70
2021/03/07 03:38:48;;;;;;;2.83;1.15;;;7.50;87.40;;;;;;5056281;28;20101;-70
2021/03/07 03:41:17;;;;;;;4.22;1.52;;;7.40;87.30;;;;;;5040540;28;20040;-70
2021/03/07 03:43:58;;;;;;;3.97;1.20;;;7.50;87.00;;;;;;5053608;28;20044;-70
2021/03/07 03:46:26;;;;;;;4.47;1.67;;;7.30;86.90;;;;;;5051399;28;20057;-70
2021/03/07 03:49:05;;;;;;;3.80;1.70;;;7.30;87.70;;;;;;5068742;28;20114;-70
2021/03/07 03:51:36;;;;;;;2.83;1.35;;;7.30;87.50;;;;;;5039089;28;20040;-70
2021/03/07 03:54:05;;;;;;;2.33;1.15;;;7.30;87.50;;;;;;5034471;28;20040;-70
2021/03/07 03:56:33;;;;;;;3.28;1.20;;;7.40;86.20;;;;;;5067372;28;20036;-69
2021/03/07 03:59:03;;;;;;;4.85;2.05;;;7.30;85.30;;;;;;5054028;28;20144;-69
2021/03/07 04:01:32;;;;;;;2.80;1.67;;;7.40;85.30;;;;;;5052761;28;20048;-70
2021/03/07 04:04:04;;;;;;;3.00;1.70;;;7.30;85.40;;;;;;5054088;28;20041;-70
2021/03/07 04:06:32;;;;;;;3.17;1.38;;;7.30;84.60;;;;;;5078832;28;20048;-70
2021/03/07 04:08:59;;;;;;;3.20;1.65;;;7.30;84.80;;;;;;5038872;28;20037;-70
2021/03/07 04:11:27;;;;;;;1.98;1.30;;;7.30;85.00;;;;;;5052889;28;20055;-70
2021/03/07 04:14:16;;;;;;;2.55;1.20;;;7.30;84.90;;;;;;5054453;28;20043;-70
2021/03/07 04:16:46;;;;;;;3.20;1.33;;;7.30;85.10;;;;;;5054596;28;20086;-70
2021/03/07 04:19:13;;;;;;;4.68;1.73;;;7.30;84.90;;;;;;5047116;28;20057;-70
2021/03/07 04:21:42;;;;;;;2.75;1.63;;;7.30;85.10;;;;;;5051880;28;20084;-70
2021/03/07 04:24:10;;;;;;;4.53;1.38;;;7.30;85.20;;;;;;5054009;28;20131;-70
2021/03/07 04:26:38;;;;;;;2.97;1.27;;;7.30;84.70;;;;;;5073702;28;20066;-70
2021/03/07 04:29:05;;;;;;;3.00;1.23;;;7.30;85.10;;;;;;5073624;28;20052;-70
2021/03/07 04:31:34;;;;;;;1.92;1.27;;;7.20;85.20;;;;;;5056776;28;20040;-70
2021/03/07 04:34:01;;;;;;;2.35;1.13;;;7.10;85.60;;;;;;5039838;28;20127;-70
2021/03/07 04:36:29;;;;;;;3.03;1.13;;;7.10;86.10;;;;;;5063242;28;20040;-70
2021/03/07 04:38:56;;;;;;;3.95;1.65;;;7.10;86.50;;;;;;5054327;28;20032;-70
2021/03/07 04:41:24;;;;;;;2.70;1.38;;;7.00;87.00;;;;;;5058413;28;20048;-70
2021/03/07 04:43:52;;;;;;;2.90;1.67;;;7.00;87.50;;;;;;5078621;28;20044;-70
2021/03/07 04:46:20;;;;;;;2.80;1.38;;;6.90;88.10;;;;;;5052658;28;20079;-70
2021/03/07 04:48:50;;;;;;;3.95;1.67;;;6.80;88.60;;;;;;5055037;28;20101;-70
2021/03/07 04:51:17;;;;;;;2.40;1.65;;;6.80;89.10;;;;;;5057585;28;20494;-70
2021/03/07 04:53:44;;;;;;;2.83;1.42;;;6.70;89.40;;;;;;5051924;28;20075;-70
2021/03/07 04:56:11;;;;;;;2.65;1.65;;;6.70;89.40;;;;;;5053507;28;20032;-70
2021/03/07 04:58:39;;;;;;;2.75;1.38;;;6.60;89.40;;;;;;5055216;28;20041;-70
2021/03/07 05:01:06;;;;;;;3.53;1.73;;;6.60;89.20;;;;;;5051299;28;20155;-70
2021/03/07 05:03:35;;;;;;;3.25;1.38;;;6.50;89.40;;;;;;5054061;28;20041;-70
2021/03/07 05:06:04;;;;;;;3.95;1.70;;;6.50;89.30;;;;;;5040503;28;20060;-70
2021/03/07 05:08:31;;;;;;;2.63;1.58;;;6.60;89.30;;;;;;5056235;28;20509;-70
2021/03/07 05:10:58;;;;;;;3.15;1.67;;;6.60;88.90;;;;;;5052723;28;20045;-70
2021/03/07 05:13:25;;;;;;;2.67;1.55;;;6.60;88.60;;;;;;5059892;28;20046;-70
2021/03/07 05:15:53;;;;;;;2.55;1.55;;;6.60;88.00;;;;;;5052127;28;20402;-70
2021/03/07 05:18:21;;;;;;;3.65;1.67;;;6.70;88.10;;;;;;5056814;28;20109;-70
2021/03/07 05:20:48;;;;;;;2.42;1.35;;;6.60;88.00;;;;;;5051393;28;20044;-70
2021/03/07 05:23:16;;;;;;;2.35;1.50;;;6.50;88.50;;;;;;5054874;28;20037;-69
2021/03/07 05:25:44;;;;;;;3.67;1.55;;;6.40;88.60;;;;;;5056914;28;20131;-70
2021/03/07 05:28:11;;;;;;;3.50;1.63;;;6.30;89.00;;;;;;5053696;28;20786;-70
2021/03/07 05:30:38;;;;;;;3.70;1.60;;;6.20;89.30;;;;;;5053539;28;20378;-70
2021/03/07 05:33:06;;;;;;;3.42;1.60;;;6.20;89.70;;;;;;5056778;28;20604;-70
2021/03/07 05:35:33;;;;;;;4.38;1.60;;;6.20;89.90;;;;;;5036217;28;20045;-69
2021/03/07 05:38:01;;;;;;;3.08;1.40;;;6.20;89.60;;;;;;5053321;28;20609;-70
2021/03/07 05:40:31;;;;;;;5.00;2.20;;;6.20;89.80;;;;;;5038447;28;20045;-68
2021/03/07 05:42:58;;;;;;;3.60;1.58;;;6.10;90.40;;;;;;5051746;28;20072;-70
2021/03/07 05:45:26;;;;;;;3.60;1.95;;;6.20;90.30;;;;;;5058508;28;20049;-70
2021/03/07 05:47:55;;;;;;;4.32;1.98;;;6.20;90.50;;;;;;5077915;28;20039;-70
2021/03/07 05:50:23;;;;;;;3.80;2.03;;;6.20;90.70;;;;;;5058535;28;20036;-70
2021/03/07 05:52:53;;;;;;;4.93;2.47;;;6.20;90.90;;;;;;5053185;28;20506;-70
2021/03/07 05:55:20;;;;;;;4.13;2.30;;;6.20;91.40;;;;;;5055412;28;20051;-70
2021/03/07 05:57:49;;;;;;;4.53;2.38;;;6.20;91.70;;;;;;5048031;28;20109;-70
2021/03/07 06:00:18;;;;;;;3.50;2.42;;;6.20;91.90;;;;;;5051024;28;20513;-70
2021/03/07 06:02:46;;;;;;;4.40;2.67;;;6.10;92.20;;;;;;5040326;28;21772;-70
2021/03/07 06:05:15;;;;;;;4.43;2.25;;;6.00;92.50;;;;;;5034572;28;20042;-70
2021/03/07 06:07:43;;;;;;;4.85;2.42;;;6.00;92.70;;;;;;5053024;28;20048;-70
2021/03/07 06:10:13;;;;;;;5.18;2.28;;;6.20;91.80;;;;;;5056364;28;20141;-70
2021/03/07 06:12:41;;;;;;;3.58;1.65;;;6.10;91.60;;;;;;5054510;28;20512;-70
2021/03/07 06:15:12;;;;;;;2.60;1.63;;;6.10;91.50;;;;;;5068934;28;20036;-70
2021/03/07 06:17:42;;;;;;;3.17;1.50;;;6.00;91.50;;;;;;5070928;28;20044;-70
2021/03/07 06:20:12;;;;;;;2.85;1.55;;;6.00;91.30;;;;;;5071294;28;20044;-70
2021/03/07 06:22:49;;;;;;;2.85;1.35;;;6.00;91.40;;;;;;5073039;28;20131;-70
2021/03/07 06:25:17;;;;;;;4.50;1.85;;;6.00;91.10;;;;;;5071873;28;20413;-70
2021/03/07 06:27:46;;;;;;;5.50;2.20;;;6.20;90.90;;;;;;5052524;28;20065;-70
2021/03/07 06:30:17;;;;;;;3.72;2.20;;;6.20;90.90;;;;;;5072675;28;20101;-70
2021/03/07 06:32:51;;;;;;;4.45;2.55;;;6.20;91.20;;;;;;5056778;28;20047;-70
2021/03/07 06:35:21;;;;;;;4.65;2.35;;;6.20;91.40;;;;;;5071210;28;20036;-70
2021/03/07 06:37:57;;;;;;;4.40;2.85;;;6.20;91.60;;;;;;5054881;28;20040;-69
2021/03/07 06:40:28;;;;;;;5.05;2.92;;;6.20;91.60;;;;;;5055962;28;20048;-70
2021/03/07 06:42:56;;;;;;;5.80;3.30;;;6.20;91.90;;;;;;5069631;28;20049;-70
2021/03/07 06:45:34;;;;;;;5.63;3.20;;;6.20;92.10;;;;;;5073175;28;20078;-70
2021/03/07 06:48:02;;;;;;;4.82;3.22;;;6.20;92.40;;;;;;5053864;28;20497;-69
2021/03/07 06:50:30;;;;;;;5.13;3.38;;;6.30;92.70;;;;;;5052100;28;20133;-70
2021/03/07 06:53:00;;;;;;;6.18;3.22;;;6.40;92.30;;;;;;5055473;28;20152;-70
2021/03/07 06:55:40;;;;;;;7.68;3.58;;;6.40;92.20;;;;;;5054327;28;20611;-70
2021/03/07 06:58:14;;;;;;;4.63;3.40;;;6.50;92.30;;;;;;5071991;28;20480;-70
2021/03/07 07:00:43;;;;;;;6.28;4.10;;;6.50;92.10;;;;;;5069926;28;20093;-70
2021/03/07 07:03:13;;;;;;;6.28;3.40;;;6.60;92.20;;;;;;5056702;28;20244;-70
2021/03/07 07:05:42;;;;;;;5.13;3.35;;;6.60;92.20;;;;;;5057110;28;20502;-70
2021/03/07 07:08:12;;;;;;;6.53;3.80;;;6.60;92.20;;;;;;5055842;28;20050;-70
2021/03/07 07:10:56;;;;;;;9.50;6.13;;;6.70;91.80;;;;;;5072939;28;20058;-70
2021/03/07 07:13:24;;;;;;;15.98;10.10;;;6.80;91.70;;;;;;5070142;28;20056;-70
2021/03/07 07:16:02;;;;;;;27.17;16.25;;;6.90;91.30;;;;;;5070429;28;20097;-70
2021/03/07 07:18:32;;;;;;;46.55;26.58;;;6.90;90.90;;;;;;5037729;28;20048;-70
2021/03/07 07:21:01;;;;;;;53.58;33.05;;;7.10;90.80;;;;;;5074760;28;20039;-70
2021/03/07 07:23:29;;;;;;;67.38;41.08;;;7.10;90.60;;;;;;5052808;28;20051;-70
2021/03/07 07:25:57;;;;;;;39.53;25.17;;;7.20;90.80;;;;;;5073792;28;20052;-70
2021/03/07 07:28:26;;;;;;;53.38;36.40;;;7.30;90.80;;;;;;5067663;28;20506;-70
2021/03/07 07:31:00;;;;;;;46.30;30.70;;;7.40;90.40;;;;;;5051135;28;20111;-70
2021/03/07 07:33:36;;;;;;;37.03;24.48;;;7.40;90.70;;;;;;5060029;28;20052;-70
2021/03/07 07:36:08;;;;;;;32.10;20.08;;;7.40;90.90;;;;;;5071006;28;20617;-70
2021/03/07 07:38:37;;;;;;;19.20;12.60;;;7.40;91.50;;;;;;5075502;28;20040;-70
2021/03/07 07:41:26;;;;;;;13.57;8.50;;;7.40;91.90;;;;;;5070393;28;20123;-70
2021/03/07 07:43:54;;;;;;;9.02;6.18;;;7.40;92.20;;;;;;5070309;28;20053;-70
2021/03/07 07:46:21;;;;;;;11.52;5.13;;;7.50;92.00;;;;;;5049357;28;20559;-70
2021/03/07 07:48:50;;;;;;;7.65;5.50;;;7.50;92.30;;;;;;5056990;28;20032;-70
2021/03/07 07:51:34;;;;;;;7.43;4.63;;;7.70;92.00;;;;;;5054151;28;20525;-70
2021/03/07 07:54:02;;;;;;;8.13;4.57;;;7.90;91.80;;;;;;5050994;28;20067;-70
2021/03/07 07:56:35;;;;;;;6.15;4.20;;;7.90;91.20;;;;;;5054271;28;20044;-70
2021/03/07 07:59:03;;;;;;;6.90;4.13;;;8.10;90.90;;;;;;5074479;28;20043;-70
2021/03/07 08:01:53;;;;;;;5.95;3.63;;;8.00;90.30;;;;;;5037801;28;20699;-70
2021/03/07 08:04:38;;;;;;;6.43;3.83;;;8.00;90.20;;;;;;5072589;28;20081;-70
2021/03/07 08:07:07;;;;;;;6.63;3.58;;;8.10;90.10;;;;;;5058517;28;20051;-71
2021/03/07 08:09:41;;;;;;;4.18;2.92;;;8.20;90.00;;;;;;5072937;28;20036;-70
2021/03/07 08:12:38;;;;;;;4.07;2.97;;;8.30;89.60;;;;;;5076928;28;20430;-70
2021/03/07 08:15:40;;;;;;;5.30;2.70;;;8.40;89.40;;;;;;5070515;28;20129;-69
2021/03/07 08:18:08;;;;;;;4.68;2.95;;;8.60;88.90;;;;;;5057560;28;20059;-70
2021/03/07 08:21:05;;;;;;;4.07;2.88;;;8.60;88.30;;;;;;5044161;28;20056;-70
2021/03/07 08:23:56;;;;;;;5.03;2.80;;;8.80;86.70;;;;;;5061428;28;20384;-70
2021/03/07 08:26:25;;;;;;;3.72;2.20;;;9.00;85.20;;;;;;5074957;28;20050;-70
2021/03/07 08:28:53;;;;;;;3.28;2.33;;;9.10;83.00;;;;;;5076538;28;20537;-70
2021/03/07 08:31:33;;;;;;;4.15;2.15;;;9.10;83.20;;;;;;5056105;28;20047;-70
2021/03/07 08:34:21;;;;;;;3.65;2.20;;;9.20;82.10;;;;;;5059809;28;20544;-70
2021/03/07 08:36:58;;;;;;;5.03;2.17;;;9.30;81.90;;;;;;5057474;28;20131;-70
2021/03/07 08:39:28;;;;;;;4.03;2.50;;;9.40;79.20;;;;;;5076679;28;20048;-70
2021/03/07 08:41:58;;;;;;;4.50;2.28;;;9.40;77.30;;;;;;5059329;28;20044;-70
2021/03/07 08:44:26;;;;;;;2.88;2.13;;;9.50;77.80;;;;;;5072856;28;20047;-70
2021/03/07 08:46:54;;;;;;;3.55;2.28;;;9.70;77.60;;;;;;5037326;28;20139;-70
2021/03/07 08:49:25;;;;;;;4.28;2.38;;;9.80;76.70;;;;;;5079201;28;20413;-70
2021/03/07 08:51:58;;;;;;;3.22;2.20;;;9.90;76.30;;;;;;5073733;28;20040;-76
2021/03/07 08:54:30;;;;;;;6.40;2.60;;;9.90;75.00;;;;;;5055715;28;20049;-71
2021/03/07 08:57:05;;;;;;;3.75;2.70;;;10.00;75.30;;;;;;5060134;28;20044;-70
2021/03/07 08:59:34;;;;;;;5.30;2.53;;;10.10;74.60;;;;;;5075207;28;20044;-70
2021/03/07 09:02:04;;;;;;;3.78;2.25;;;10.20;72.10;;;;;;5061083;28;20135;-71
2021/03/07 09:04:33;;;;;;;5.18;2.30;;;10.30;72.30;;;;;;5052970;28;20147;-71
2021/03/07 09:07:01;;;;;;;4.35;2.88;;;10.30;73.80;;;;;;5054010;28;20052;-72
2021/03/07 09:09:30;;;;;;;30.17;18.23;;;10.40;73.30;;;;;;5055580;28;20397;-72
2021/03/07 09:11:59;;;;;;;5.10;3.05;;;10.40;72.40;;;;;;5073246;28;20055;-72
2021/03/07 09:14:30;;;;;;;4.05;2.30;;;10.60;72.60;;;;;;5054316;28;20428;-71
2021/03/07 09:16:59;;;;;;;6.90;3.13;;;10.70;71.40;;;;;;5056199;28;20049;-71
2021/03/07 09:19:32;;;;;;;3.50;2.47;;;10.80;71.20;;;;;;5052906;28;20044;-71
2021/03/07 09:22:18;;;;;;;5.93;3.00;;;10.90;71.80;;;;;;5055739;28;20052;-71
2021/03/07 09:24:54;;;;;;;6.88;3.08;;;11.00;70.80;;;;;;5073118;28;20044;-71
2021/03/07 09:27:23;;;;;;;9.38;3.08;;;11.00;70.70;;;;;;5061623;28;20506;-73
2021/03/07 09:29:53;;;;;;;5.22;2.60;;;11.10;71.50;;;;;;5069888;28;20135;-71
2021/03/07 09:32:37;;;;;;;6.30;2.55;;;11.10;69.90;;;;;;5051186;28;20051;-71
2021/03/07 09:35:21;;;;;;;14.07;2.85;;;11.30;69.60;;;;;;5046434;28;20737;-78
2021/03/07 09:37:54;;;;;;;5.50;2.20;;;11.40;69.30;;;;;;5076513;28;20514;-69
2021/03/07 09:40:23;;;;;;;3.90;2.08;;;11.50;69.50;;;;;;5062128;28;20651;-70
2021/03/07 09:42:55;;;;;;;3.05;2.25;;;11.60;67.50;;;;;;5036973;28;20047;-71
2021/03/07 09:45:24;;;;;;;3.03;2.00;;;11.70;67.80;;;;;;5070115;28;20418;-71
2021/03/07 09:48:06;;;;;;;3.53;1.92;;;11.80;68.00;;;;;;5056070;28;20052;-71
2021/03/07 09:50:34;;;;;;;3.30;1.88;;;11.90;68.40;;;;;;5056838;28;20139;-71
2021/03/07 09:53:04;;;;;;;2.92;1.60;;;12.00;69.40;;;;;;5054922;28;20268;-72
2021/03/07 09:55:34;;;;;;;4.18;1.90;;;12.00;68.10;;;;;;5069916;28;20054;-71
2021/03/07 09:58:04;;;;;;;3.78;2.33;;;12.10;66.40;;;;;;5041289;28;20494;-71
2021/03/07 10:00:32;;;;;;;6.20;4.10;;;12.20;67.10;;;;;;5071013;28;20105;-78
2021/03/07 10:03:00;;;;;;;20.92;3.38;;;12.20;65.40;;;;;;5076314;28;20066;-71
2021/03/07 10:05:27;;;;;;;6.75;2.28;;;12.40;66.80;;;;;;5074088;28;20039;-72
2021/03/07 10:07:55;;;;;;;6.65;2.30;;;12.50;65.50;;;;;;5076926;28;20067;-72
2021/03/07 10:10:24;;;;;;;10.88;2.20;;;12.60;65.90;;;;;;5036538;28;20051;-72
2021/03/07 10:12:54;;;;;;;7.75;2.28;;;12.70;67.40;;;;;;5077634;28;20470;-73
2021/03/07 10:15:34;;;;;;;2.40;1.60;;;12.80;66.40;;;;;;5052513;28;20036;-73
2021/03/07 10:18:16;;;;;;;5.45;1.50;;;13.00;64.70;;;;;;5075885;28;20185;-74
2021/03/07 10:20:46;;;;;;;6.25;1.48;;;13.00;63.40;;;;;;5052284;28;20044;-73
2021/03/07 10:23:14;;;;;;;4.53;1.63;;;13.10;62.90;;;;;;5078826;28;20180;-74
2021/03/07 10:25:45;;;;;;;2.33;1.50;;;13.20;62.80;;;;;;5060184;28;20044;-76
2021/03/07 10:28:34;;;;;;;3.08;1.40;;;13.30;61.80;;;;;;5053868;28;20121;-76
2021/03/07 10:31:10;;;;;;;2.65;1.50;;;13.50;62.90;;;;;;5037587;28;20409;-76
2021/03/07 10:33:38;;;;;;;2.80;1.60;;;13.50;63.10;;;;;;5059122;28;20116;-76
2021/03/07 10:36:10;;;;;;;2.58;1.30;;;13.60;63.10;;;;;;5074633;28;20326;-73
2021/03/07 10:38:39;;;;;;;2.38;1.40;;;13.70;62.80;;;;;;5072632;28;20055;-71
2021/03/07 10:41:22;;;;;;;4.65;2.90;;;13.80;62.90;;;;;;5061042;28;20433;-72
2021/03/07 10:43:52;;;;;;;5.70;2.97;;;13.80;62.80;;;;;;5072172;28;20071;-72
2021/03/07 10:46:28;;;;;;;3.83;1.83;;;14.00;63.50;;;;;;5073618;28;20129;-72
2021/03/07 10:49:10;;;;;;;3.08;1.75;;;14.00;62.60;;;;;;5038160;28;20520;-72
2021/03/07 10:51:38;;;;;;;6.47;2.22;;;14.10;61.00;;;;;;5049213;28;20040;-71
2021/03/07 10:54:06;;;;;;;3.45;1.70;;;14.20;60.20;;;;;;5050554;28;20044;-70
2021/03/07 10:56:38;;;;;;;5.80;1.20;;;14.30;60.30;;;;;;5045032;28;20578;-70
2021/03/07 10:59:07;;;;;;;2.83;1.20;;;14.30;58.70;;;;;;5056587;28;20043;-73
2021/03/07 11:01:43;;;;;;;3.15;1.50;;;14.30;59.50;;;;;;5056233;28;20048;-73
2021/03/07 11:04:12;;;;;;;3.13;1.73;;;14.50;60.30;;;;;;5056841;28;20048;-72
2021/03/07 11:06:39;;;;;;;5.85;1.40;;;14.60;59.00;;;;;;5034233;28;20487;-71
2021/03/07 11:09:07;;;;;;;4.60;1.83;;;14.70;58.80;;;;;;5074672;28;20098;-71
2021/03/07 11:11:34;;;;;;;4.82;1.50;;;14.60;61.40;;;;;;5055199;28;20125;-73
2021/03/07 11:14:03;;;;;;;3.85;1.50;;;14.70;59.70;;;;;;5056833;28;20501;-71
2021/03/07 11:16:31;;;;;;;5.32;2.00;;;14.70;60.80;;;;;;5052574;28;20051;-72
2021/03/07 11:19:17;;;;;;;4.35;2.20;;;14.80;60.00;;;;;;5061017;28;20063;-72
2021/03/07 11:21:44;;;;;;;4.70;1.60;;;15.00;60.30;;;;;;5051071;28;20407;-71
2021/03/07 11:24:12;;;;;;;21.70;3.15;;;15.00;61.20;;;;;;5056428;28;20043;-72
2021/03/07 11:26:40;;;;;;;3.40;1.50;;;15.00;64.40;;;;;;5047273;28;20507;-71
2021/03/07 11:29:08;;;;;;;5.35;2.00;;;15.20;62.10;;;;;;5070378;28;20616;-72
2021/03/07 11:31:36;;;;;;;5.63;1.48;;;15.30;64.50;;;;;;5072769;28;20040;-72
2021/03/07 11:34:04;;;;;;;4.53;2.03;;;15.20;63.70;;;;;;5057149;28;20032;-73
2021/03/07 11:36:32;;;;;;;7.47;3.00;;;15.30;63.30;;;;;;5055362;28;20047;-71
2021/03/07 11:39:00;;;;;;;4.45;2.05;;;15.30;65.10;;;;;;5071424;28;20056;-73
2021/03/07 11:41:27;;;;;;;5.40;2.00;;;15.30;65.30;;;;;;5051901;28;20044;-71
2021/03/07 11:43:55;;;;;;;4.45;2.10;;;15.30;63.20;;;;;;5073430;28;20032;-71
2021/03/07 11:46:22;;;;;;;5.65;2.20;;;15.10;62.40;;;;;;5049166;28;20171;-74
2021/03/07 11:48:51;;;;;;;3.80;2.38;;;15.30;65.30;;;;;;5054144;28;20043;-72
2021/03/07 11:51:20;;;;;;;5.78;2.30;;;15.50;63.20;;;;;;5031889;28;20051;-73
2021/03/07 11:53:48;;;;;;;3.33;2.10;;;15.40;63.00;;;;;;5059271;28;20104;-70
2021/03/07 11:56:16;;;;;;;3.60;2.20;;;15.50;62.30;;;;;;5053611;28;20041;-70
2021/03/07 11:58:44;;;;;;;3.05;2.20;;;15.40;60.50;;;;;;5052033;28;20105;-70
2021/03/07 12:01:11;;;;;;;4.60;2.35;;;15.40;61.70;;;;;;5049776;28;20049;-72
2021/03/07 12:03:40;;;;;;;4.85;2.40;;;15.40;61.70;;;;;;5056028;28;20048;-74
2021/03/07 12:06:09;;;;;;;4.65;2.33;;;15.40;62.40;;;;;;5050718;28;20052;-75
2021/03/07 12:08:36;;;;;;;3.28;1.88;;;15.40;61.70;;;;;;5054786;28;20048;-70
2021/03/07 12:11:04;;;;;;;3.95;2.35;;;15.40;61.80;;;;;;5049066;28;20506;-71
2021/03/07 12:13:32;;;;;;;2.50;1.73;;;15.80;62.80;;;;;;5035044;28;20041;-71
2021/03/07 12:15:59;;;;;;;3.38;1.80;;;16.10;62.30;;;;;;5054282;28;20033;-71
2021/03/07 12:18:30;;;;;;;4.13;1.95;;;16.30;62.40;;;;;;5047521;28;20872;-71
2021/03/07 12:20:58;;;;;;;3.75;1.95;;;16.40;61.90;;;;;;5052316;28;20043;-71
2021/03/07 12:23:26;;;;;;;3.35;1.92;;;16.60;62.30;;;;;;5053025;28;20421;-71
2021/03/07 12:25:54;;;;;;;3.10;2.40;;;16.80;62.20;;;;;;5050786;28;20066;-71
2021/03/07 12:28:22;;;;;;;4.53;3.10;;;16.90;60.90;;;;;;5036183;28;20037;-71
2021/03/07 12:30:49;;;;;;;3.92;2.05;;;17.00;61.10;;;;;;5046030;28;20033;-71
2021/03/07 12:33:16;;;;;;;3.40;1.92;;;16.80;59.90;;;;;;5051910;28;20061;-71
2021/03/07 12:35:44;;;;;;;3.00;2.00;;;16.80;60.20;;;;;;5051926;28;20403;-72
2021/03/07 12:38:11;;;;;;;3.30;2.03;;;16.70;61.10;;;;;;5049765;28;20163;-72
2021/03/07 12:40:40;;;;;;;3.63;2.00;;;17.00;61.60;;;;;;5048995;28;20138;-72
2021/03/07 12:43:07;;;;;;;4.32;2.60;;;17.20;61.60;;;;;;5049962;28;20176;-72
2021/03/07 12:45:34;;;;;;;2.90;1.65;;;17.30;61.40;;;;;;5050567;28;20138;-72
2021/03/07 12:48:02;;;;;;;7.32;5.63;;;17.30;60.20;;;;;;5056993;28;20440;-72
2021/03/07 12:50:46;;;;;;;3.85;2.03;;;17.30;61.20;;;;;;5055205;28;20040;-72
2021/03/07 12:53:13;;;;;;;4.80;1.85;;;17.20;60.30;;;;;;5049905;28;20048;-71
2021/03/07 12:55:42;;;;;;;3.03;1.95;;;17.00;59.90;;;;;;5052674;28;20406;-72
2021/03/07 12:58:09;;;;;;;5.80;2.75;;;17.10;62.10;;;;;;5050674;28;20060;-72
2021/03/07 13:00:36;;;;;;;3.70;2.83;;;17.10;61.80;;;;;;5059449;28;20559;-73
2021/03/07 13:03:04;;;;;;;2.85;2.13;;;17.10;62.20;;;;;;5052374;28;20466;-71
2021/03/07 13:05:31;;;;;;;5.43;2.13;;;17.00;62.20;;;;;;5048654;28;20402;-73
2021/03/07 13:07:59;;;;;;;3.33;1.83;;;17.30;61.90;;;;;;5054467;28;20573;-71